createdAt,value
2022-10-16T00:01:37.080Z,1.10
2022-10-16T00:04:07.101Z,1.10
2022-10-16T00:06:39.471Z,1.33
2022-10-16T00:09:10.377Z,1.53
2022-10-16T00:11:43.308Z,1.33
2022-10-16T00:14:16.234Z,1.57
2022-10-16T00:16:46.303Z,1.37
2022-10-16T00:19:16.826Z,1.67
2022-10-16T00:21:49.109Z,1.50
2022-10-16T00:24:37.623Z,1.60
2022-10-16T00:27:07.262Z,1.60
2022-10-16T00:29:36.904Z,1.80
2022-10-16T00:32:07.056Z,1.87
2022-10-16T00:34:36.701Z,1.80
2022-10-16T00:37:09.364Z,2.50
2022-10-16T00:39:39.315Z,2.30
2022-10-16T00:42:09.236Z,2.30
2022-10-16T00:44:48.452Z,2.27
2022-10-16T00:47:24.023Z,2.27
2022-10-16T00:49:56.946Z,3.07
2022-10-16T00:52:29.411Z,2.20
2022-10-16T00:55:00.611Z,2.43
2022-10-16T00:57:30.573Z,2.60
2022-10-16T01:00:01.425Z,2.40
2022-10-16T01:02:31.167Z,2.80
2022-10-16T01:05:01.097Z,3.50
2022-10-16T01:07:45.091Z,3.00
2022-10-16T01:10:28.136Z,3.10
2022-10-16T01:13:02.760Z,2.83
2022-10-16T01:18:34.910Z,3.13
2022-10-16T01:21:07.897Z,2.67
2022-10-16T01:23:53.704Z,2.47
2022-10-16T01:26:39.816Z,3.07
2022-10-16T01:29:18.651Z,2.97
2022-10-16T01:31:54.173Z,2.97
2022-10-16T01:34:28.916Z,3.50
2022-10-16T01:37:06.072Z,2.80
2022-10-16T01:39:39.352Z,3.07
2022-10-16T01:42:15.001Z,3.47
2022-10-16T01:44:49.308Z,3.43
2022-10-16T01:47:21.237Z,3.87
2022-10-16T01:49:51.777Z,3.20
2022-10-16T01:52:27.937Z,3.27
2022-10-16T01:55:01.181Z,2.77
2022-10-16T01:57:33.508Z,3.10
2022-10-16T02:00:12.517Z,3.20
2022-10-16T02:02:45.260Z,2.87
2022-10-16T02:05:20.438Z,2.90
2022-10-16T02:07:51.286Z,3.50
2022-10-16T02:10:21.415Z,3.30
2022-10-16T02:12:55.703Z,2.97
2022-10-16T02:15:28.158Z,2.40
2022-10-16T02:17:57.924Z,2.63
2022-10-16T02:20:31.234Z,3.17
2022-10-16T02:23:02.012Z,2.47
2022-10-16T02:25:35.635Z,3.10
2022-10-16T02:28:10.663Z,3.30
2022-10-16T02:30:49.348Z,2.70
2022-10-16T02:33:21.359Z,3.30
2022-10-16T02:35:53.739Z,3.30
2022-10-16T02:38:24.923Z,2.97
2022-10-16T02:40:55.151Z,3.20
2022-10-16T02:43:25.202Z,3.43
2022-10-16T02:45:57.620Z,3.93
2022-10-16T02:48:27.411Z,3.80
2022-10-16T02:50:58.145Z,3.77
2022-10-16T02:53:27.907Z,4.10
2022-10-16T02:55:57.628Z,3.20
2022-10-16T02:58:27.362Z,3.40
2022-10-16T03:00:59.864Z,3.40
2022-10-16T03:03:29.680Z,3.67
2022-10-16T03:05:59.438Z,3.37
2022-10-16T03:08:29.194Z,4.17
2022-10-16T03:10:59.167Z,3.70
2022-10-16T03:13:31.191Z,4.43
2022-10-16T03:16:03.565Z,3.00
2022-10-16T03:18:33.316Z,3.40
2022-10-16T03:21:03.065Z,2.97
2022-10-16T03:23:33.537Z,3.63
2022-10-16T03:26:03.322Z,4.07
2022-10-16T03:28:33.239Z,3.67
2022-10-16T03:31:05.644Z,4.20
2022-10-16T03:33:35.354Z,4.33
2022-10-16T03:36:05.320Z,3.83
2022-10-16T03:38:35.202Z,3.93
2022-10-16T03:41:05.046Z,4.47
2022-10-16T03:43:34.836Z,4.27
2022-10-16T03:46:07.271Z,4.13
2022-10-16T03:48:37.410Z,4.53
2022-10-16T03:51:07.267Z,4.20
2022-10-16T03:53:37.030Z,4.63
2022-10-16T03:56:06.876Z,4.27
2022-10-16T03:58:36.664Z,4.57
2022-10-16T04:01:09.163Z,4.30
2022-10-16T04:03:39.018Z,4.40
2022-10-16T04:06:09.871Z,4.17
2022-10-16T04:08:40.228Z,4.10
2022-10-16T04:11:09.967Z,4.10
2022-10-16T04:13:40.332Z,4.40
2022-10-16T04:16:12.861Z,4.40
2022-10-16T04:18:42.625Z,4.40
2022-10-16T04:21:12.515Z,4.07
2022-10-16T04:23:42.345Z,4.13
2022-10-16T04:26:12.161Z,4.20
2022-10-16T04:28:42.019Z,3.67
2022-10-16T04:31:14.467Z,3.70
2022-10-16T04:33:46.309Z,3.53
2022-10-16T04:36:17.285Z,3.60
2022-10-16T04:38:47.107Z,4.07
2022-10-16T04:41:16.878Z,3.20
2022-10-16T04:43:46.610Z,4.00
2022-10-16T04:46:18.925Z,3.40
2022-10-16T04:48:48.671Z,3.40
2022-10-16T04:51:19.850Z,3.70
2022-10-16T04:53:49.570Z,4.17
2022-10-16T04:56:19.486Z,3.67
2022-10-16T04:58:49.202Z,3.30
2022-10-16T05:01:21.691Z,3.17
2022-10-16T05:03:51.437Z,2.90
2022-10-16T05:06:21.154Z,2.77
2022-10-16T05:08:50.871Z,3.17
2022-10-16T05:11:20.616Z,2.70
2022-10-16T05:13:53.573Z,2.70
2022-10-16T05:16:28.136Z,3.00
2022-10-16T05:19:22.413Z,2.13
2022-10-16T05:21:48.112Z,2.73
2022-10-16T05:24:18.067Z,2.50
2022-10-16T05:26:47.811Z,2.77
2022-10-16T05:29:17.971Z,2.97
2022-10-16T05:31:50.423Z,2.40
2022-10-16T05:34:20.185Z,3.60
2022-10-16T05:36:49.973Z,2.93
2022-10-16T05:39:20.106Z,2.50
2022-10-16T05:41:49.867Z,2.67
2022-10-16T05:44:19.758Z,2.30
2022-10-16T05:46:52.673Z,2.40
2022-10-16T05:49:22.448Z,2.10
2022-10-16T05:51:52.315Z,1.77
2022-10-16T05:54:22.788Z,2.67
2022-10-16T05:56:52.523Z,2.20
2022-10-16T05:59:22.301Z,2.30
2022-10-16T06:01:54.656Z,2.10
2022-10-16T06:04:24.379Z,1.67
2022-10-16T06:06:54.081Z,1.80
2022-10-16T06:09:23.831Z,2.03
2022-10-16T06:11:53.567Z,2.00
2022-10-16T06:14:23.288Z,1.90
2022-10-16T06:16:55.623Z,1.77
2022-10-16T06:19:25.375Z,1.83
2022-10-16T06:21:56.379Z,1.50
2022-10-16T06:24:27.174Z,1.80
2022-10-16T06:26:58.039Z,2.03
2022-10-16T06:29:28.880Z,1.53
2022-10-16T06:32:01.284Z,1.50
2022-10-16T06:34:31.033Z,1.63
2022-10-16T06:37:01.876Z,1.50
2022-10-16T06:39:32.601Z,1.63
2022-10-16T06:42:03.494Z,1.50
2022-10-16T06:44:40.208Z,1.70
2022-10-16T06:47:13.575Z,1.70
2022-10-16T06:49:45.075Z,1.50
2022-10-16T06:52:14.944Z,1.17
2022-10-16T06:54:44.755Z,1.50
2022-10-16T06:57:14.520Z,1.40
2022-10-16T06:59:46.952Z,1.30
2022-10-16T07:02:19.731Z,1.37
2022-10-16T07:04:49.511Z,1.30
2022-10-16T07:07:19.352Z,1.10
2022-10-16T07:09:49.231Z,1.37
2022-10-16T07:12:19.055Z,1.10
2022-10-16T07:14:49.347Z,1.13
2022-10-16T07:17:22.739Z,1.20
2022-10-16T07:19:54.267Z,1.37
2022-10-16T07:22:25.340Z,1.20
2022-10-16T07:24:55.359Z,0.90
2022-10-16T07:27:27.593Z,1.10
2022-10-16T07:29:57.334Z,1.10
2022-10-16T07:32:29.779Z,0.87
2022-10-16T07:34:59.628Z,1.20
2022-10-16T07:37:29.748Z,0.90
2022-10-16T07:40:00.755Z,1.67
2022-10-16T07:42:31.889Z,1.00
2022-10-16T07:45:02.654Z,1.20
2022-10-16T07:47:35.164Z,1.10
2022-10-16T07:50:06.310Z,1.50
2022-10-16T07:52:37.130Z,0.90
2022-10-16T07:55:07.727Z,0.90
2022-10-16T07:57:37.458Z,1.10
2022-10-16T08:00:14.402Z,1.10
2022-10-16T08:02:46.796Z,1.23
2022-10-16T08:05:16.676Z,1.23
2022-10-16T08:07:46.549Z,1.00
2022-10-16T08:10:20.981Z,1.00
2022-10-16T08:12:50.811Z,1.10
2022-10-16T08:15:21.957Z,1.37
2022-10-16T08:18:01.798Z,0.80
2022-10-16T08:20:32.819Z,1.13
2022-10-16T08:23:03.539Z,1.10
2022-10-16T08:25:33.536Z,0.90
2022-10-16T08:28:03.248Z,1.33
2022-10-16T08:30:33.074Z,1.40
2022-10-16T08:33:07.026Z,1.20
2022-10-16T08:35:36.820Z,1.00
2022-10-16T08:38:07.016Z,1.20
2022-10-16T08:40:39.636Z,1.10
2022-10-16T08:43:24.595Z,1.27
2022-10-16T08:46:22.469Z,1.10
2022-10-16T08:48:56.941Z,1.10
2022-10-16T08:51:31.123Z,1.50
2022-10-16T08:54:03.015Z,2.47
2022-10-16T08:56:34.314Z,1.20
2022-10-16T08:59:04.161Z,1.03
2022-10-16T09:01:42.858Z,1.27
2022-10-16T09:04:46.699Z,1.63
2022-10-16T09:07:25.897Z,1.20
2022-10-16T09:10:19.214Z,1.43
2022-10-16T09:12:57.665Z,0.90
2022-10-16T09:15:35.013Z,1.00
2022-10-16T09:18:15.575Z,1.13
2022-10-16T09:20:55.218Z,1.20
2022-10-16T09:23:29.766Z,1.20
2022-10-16T09:26:01.917Z,1.03
2022-10-16T09:28:31.803Z,1.10
2022-10-16T09:31:02.705Z,1.30
2022-10-16T09:33:39.037Z,2.23
2022-10-16T09:36:14.179Z,2.03
2022-10-16T09:38:44.134Z,1.23
2022-10-16T09:41:21.492Z,1.00
2022-10-16T09:43:58.552Z,1.80
2022-10-16T09:46:31.236Z,1.03
2022-10-16T09:49:03.972Z,1.40
2022-10-16T09:51:38.506Z,1.33
2022-10-16T09:54:18.323Z,1.03
2022-10-16T09:56:52.693Z,1.40
2022-10-16T09:59:27.584Z,1.40
2022-10-16T10:02:01.842Z,1.33
2022-10-16T10:04:43.878Z,1.00
2022-10-16T10:07:28.643Z,1.23
2022-10-16T10:10:01.295Z,1.50
2022-10-16T10:12:34.781Z,2.07
2022-10-16T10:15:10.294Z,1.13
2022-10-16T10:17:50.092Z,1.03
2022-10-16T10:20:28.531Z,1.23
2022-10-16T10:23:01.061Z,1.40
2022-10-16T10:25:53.654Z,1.10
2022-10-16T10:28:49.911Z,1.20
2022-10-16T10:31:28.368Z,1.23
2022-10-16T10:34:05.502Z,1.30
2022-10-16T10:36:39.370Z,1.37
2022-10-16T10:39:19.423Z,1.70
2022-10-16T10:42:16.029Z,1.03
2022-10-16T10:44:59.354Z,1.17
2022-10-16T10:47:39.575Z,0.90
2022-10-16T10:50:17.670Z,1.20
2022-10-16T10:53:00.767Z,1.13
2022-10-16T10:55:41.857Z,1.50
2022-10-16T10:58:30.017Z,1.50
2022-10-16T11:01:07.446Z,1.90
2022-10-16T11:03:52.672Z,1.30
2022-10-16T11:06:30.484Z,1.30
2022-10-16T11:09:11.341Z,1.30
2022-10-16T11:11:50.726Z,1.10
2022-10-16T11:14:25.540Z,1.20
2022-10-16T11:17:01.078Z,1.30
2022-10-16T11:19:39.063Z,0.90
2022-10-16T11:22:17.556Z,1.00
2022-10-16T11:24:54.274Z,1.17
2022-10-16T11:27:37.837Z,1.10
2022-10-16T11:30:16.037Z,2.67
2022-10-16T11:32:58.213Z,1.03
2022-10-16T11:35:36.149Z,0.90
2022-10-16T11:38:13.195Z,1.47
2022-10-16T11:40:48.715Z,1.23
2022-10-16T11:43:28.285Z,1.10
2022-10-16T11:46:02.780Z,1.33
2022-10-16T11:48:40.379Z,1.43
2022-10-16T11:51:18.045Z,1.00
2022-10-16T11:53:52.787Z,1.27
2022-10-16T11:56:24.536Z,1.20
2022-10-16T11:59:03.811Z,0.90
2022-10-16T12:01:41.053Z,0.87
2022-10-16T12:04:25.070Z,0.90
2022-10-16T12:07:01.589Z,1.20
2022-10-16T12:09:34.443Z,1.30
2022-10-16T12:12:05.283Z,1.53
2022-10-16T12:15:03.930Z,1.13
2022-10-16T12:17:40.518Z,1.13
2022-10-16T12:20:38.294Z,1.30
2022-10-16T12:23:10.585Z,1.40
2022-10-16T12:25:47.547Z,1.20
2022-10-16T12:28:24.617Z,1.47
2022-10-16T12:31:04.118Z,1.13
2022-10-16T12:33:36.018Z,1.73
2022-10-16T12:36:08.970Z,1.30
2022-10-16T12:38:49.149Z,1.40
2022-10-16T12:41:30.596Z,0.97
2022-10-16T12:44:02.859Z,0.90
2022-10-16T12:46:43.798Z,1.10
2022-10-16T12:49:36.234Z,0.90
2022-10-16T12:52:07.103Z,1.00
2022-10-16T12:54:42.352Z,1.00
2022-10-16T12:57:38.840Z,1.10
2022-10-16T13:00:18.758Z,1.00
2022-10-16T13:03:38.521Z,1.10
2022-10-16T13:06:22.806Z,1.20
2022-10-16T13:09:20.331Z,1.20
2022-10-16T13:12:09.577Z,1.80
2022-10-16T13:14:58.015Z,1.47
2022-10-16T13:17:37.364Z,0.97
2022-10-16T13:20:20.973Z,1.50
2022-10-16T13:23:06.281Z,1.20
2022-10-16T13:25:50.874Z,2.00
2022-10-16T13:28:25.331Z,1.63
2022-10-16T13:30:59.536Z,1.17
2022-10-16T13:33:35.757Z,1.10
2022-10-16T13:36:10.621Z,1.17
2022-10-16T13:38:41.395Z,1.23
2022-10-16T13:41:18.680Z,1.70
2022-10-16T13:43:50.851Z,1.57
2022-10-16T13:46:24.554Z,1.57
2022-10-16T13:49:01.822Z,1.90
2022-10-16T13:51:35.637Z,1.10
2022-10-16T13:54:06.598Z,1.20
2022-10-16T13:56:37.095Z,1.03
2022-10-16T13:59:09.440Z,1.17
2022-10-16T14:01:45.858Z,1.17
2022-10-16T14:04:18.629Z,1.20
2022-10-16T14:06:54.721Z,1.20
2022-10-16T14:09:27.957Z,1.13
2022-10-16T14:12:02.561Z,1.07
2022-10-16T14:14:39.578Z,0.90
2022-10-16T14:17:09.596Z,0.80
2022-10-16T14:19:39.393Z,1.07
2022-10-16T14:22:30.568Z,0.90
2022-10-16T14:25:02.046Z,0.93
2022-10-16T14:27:35.902Z,0.90
2022-10-16T14:30:19.266Z,1.20
2022-10-16T14:33:02.119Z,1.20
2022-10-16T14:35:35.208Z,1.40
2022-10-16T14:38:09.650Z,1.10
2022-10-16T14:40:41.383Z,0.80
2022-10-16T14:43:25.721Z,0.90
2022-10-16T14:45:59.600Z,0.90
2022-10-16T14:48:30.719Z,1.60
2022-10-16T14:51:00.615Z,0.80
2022-10-16T14:53:33.994Z,1.10
2022-10-16T14:56:10.581Z,0.90
2022-10-16T14:58:40.313Z,1.30
2022-10-16T15:01:12.533Z,0.97
2022-10-16T15:03:43.334Z,1.03
2022-10-16T15:06:14.895Z,1.03
2022-10-16T15:08:47.550Z,0.97
2022-10-16T15:11:19.668Z,1.43
2022-10-16T15:13:50.167Z,1.30
2022-10-16T15:16:20.525Z,1.30
2022-10-16T15:18:50.245Z,1.17
2022-10-16T15:21:28.072Z,1.10
2022-10-16T15:24:01.154Z,1.30
2022-10-16T15:26:32.409Z,1.20
2022-10-16T15:29:04.674Z,0.97
2022-10-16T15:31:34.615Z,1.10
2022-10-16T15:34:06.934Z,1.10
2022-10-16T15:36:38.979Z,1.10
2022-10-16T15:39:17.446Z,1.43
2022-10-16T15:41:51.567Z,2.87
2022-10-16T15:44:21.342Z,1.20
2022-10-16T15:46:51.178Z,1.40
2022-10-16T15:49:23.358Z,1.00
2022-10-16T15:51:54.153Z,1.43
2022-10-16T15:54:26.597Z,1.10
2022-10-16T15:56:57.642Z,1.10
2022-10-16T15:59:27.463Z,0.97
2022-10-16T16:01:57.281Z,1.37
2022-10-16T16:04:43.380Z,1.50
2022-10-16T16:07:14.049Z,1.40
2022-10-16T16:09:46.461Z,1.83
2022-10-16T16:12:16.344Z,2.30
2022-10-16T16:14:47.214Z,1.23
2022-10-16T16:17:18.693Z,1.80
2022-10-16T16:19:49.691Z,1.33
2022-10-16T16:22:19.640Z,1.07
2022-10-16T16:24:52.055Z,1.30
2022-10-16T16:27:22.486Z,1.67
2022-10-16T16:29:54.380Z,1.70
2022-10-16T16:32:25.753Z,1.70
2022-10-16T16:34:56.598Z,2.70
2022-10-16T16:37:27.651Z,1.87
2022-10-16T16:40:01.743Z,2.03
2022-10-16T16:42:32.508Z,2.30
2022-10-16T16:45:02.395Z,2.43
2022-10-16T16:47:33.056Z,2.37
2022-10-16T16:50:05.844Z,1.70
2022-10-16T16:52:35.619Z,1.80
2022-10-16T16:55:09.567Z,2.43
2022-10-16T16:57:41.340Z,1.90
2022-10-16T17:00:12.799Z,2.13
2022-10-16T17:02:44.266Z,1.80
2022-10-16T17:05:14.010Z,2.00
2022-10-16T17:07:44.827Z,2.40
2022-10-16T17:10:18.889Z,1.80
2022-10-16T17:12:48.743Z,2.30
2022-10-16T17:15:19.598Z,2.30
2022-10-16T17:17:50.048Z,2.47
2022-10-16T17:20:19.849Z,2.17
2022-10-16T17:22:51.990Z,2.03
2022-10-16T17:25:25.271Z,2.93
2022-10-16T17:27:55.211Z,2.03
2022-10-16T17:30:26.915Z,3.57
2022-10-16T17:32:56.720Z,3.57
2022-10-16T17:35:27.502Z,4.53
2022-10-16T17:37:57.455Z,3.43
2022-10-16T17:40:31.332Z,2.60
2022-10-16T17:43:02.113Z,2.53
2022-10-16T17:45:32.233Z,1.80
2022-10-16T17:48:02.155Z,2.20
2022-10-16T17:50:31.975Z,2.00
2022-10-16T17:53:01.752Z,2.07
2022-10-16T17:55:39.987Z,2.40
2022-10-16T17:58:10.330Z,2.87
2022-10-16T18:00:40.209Z,4.67
2022-10-16T18:03:09.982Z,5.47
2022-10-16T18:05:40.953Z,5.67
2022-10-16T18:08:11.710Z,4.77
2022-10-16T18:10:51.598Z,5.10
2022-10-16T18:13:21.719Z,3.97
2022-10-16T18:16:02.514Z,4.07
2022-10-16T18:18:32.717Z,4.50
2022-10-16T18:21:04.142Z,3.70
2022-10-16T18:23:37.164Z,3.50
2022-10-16T18:26:12.775Z,3.00
2022-10-16T18:28:42.754Z,3.47
2022-10-16T18:31:16.906Z,3.27
2022-10-16T18:33:50.314Z,3.90
2022-10-16T18:36:22.896Z,3.50
2022-10-16T18:38:54.457Z,3.17
2022-10-16T18:41:30.152Z,4.20
2022-10-16T18:44:00.914Z,3.10
2022-10-16T18:46:32.151Z,3.77
2022-10-16T18:49:04.754Z,4.13
2022-10-16T18:51:35.989Z,3.60
2022-10-16T18:54:10.416Z,3.73
2022-10-16T18:56:43.336Z,3.70
2022-10-16T18:59:13.434Z,3.17
2022-10-16T19:01:43.707Z,4.37
2022-10-16T19:04:15.745Z,4.37
2022-10-16T19:06:47.629Z,4.10
2022-10-16T19:09:20.445Z,4.00
2022-10-16T19:11:57.398Z,3.20
2022-10-16T19:14:30.138Z,5.00
2022-10-16T19:16:59.909Z,3.83
2022-10-16T19:19:30.733Z,4.20
2022-10-16T19:22:12.261Z,3.10
2022-10-16T19:24:42.266Z,3.63
2022-10-16T19:27:14.694Z,3.43
2022-10-16T19:29:45.548Z,3.80
2022-10-16T19:32:17.410Z,3.70
2022-10-16T19:34:49.326Z,3.67
2022-10-16T19:37:25.817Z,3.50
2022-10-16T19:39:56.756Z,3.50
2022-10-16T19:42:31.207Z,3.10
2022-10-16T19:45:02.044Z,2.93
2022-10-16T19:47:32.267Z,3.40
2022-10-16T19:50:02.995Z,3.07
2022-10-16T19:52:32.823Z,3.27
2022-10-16T19:55:02.657Z,3.53
2022-10-16T19:57:37.186Z,3.10
2022-10-16T20:00:08.366Z,3.47
2022-10-16T20:02:38.826Z,2.80
2022-10-16T20:05:09.734Z,3.63
2022-10-16T20:07:39.597Z,3.90
2022-10-16T20:10:10.515Z,3.97
2022-10-16T20:12:44.214Z,4.33
2022-10-16T20:15:14.995Z,3.90
2022-10-16T20:17:44.768Z,3.60
2022-10-16T20:20:14.812Z,3.57
2022-10-16T20:22:44.632Z,3.27
2022-10-16T20:25:18.287Z,3.43
2022-10-16T20:27:51.644Z,3.67
2022-10-16T20:30:21.451Z,3.80
2022-10-16T20:32:52.798Z,3.30
2022-10-16T20:35:22.800Z,3.83
2022-10-16T20:37:52.605Z,4.20
2022-10-16T20:40:22.427Z,5.73
2022-10-16T20:42:55.869Z,4.10
2022-10-16T20:45:25.623Z,3.13
2022-10-16T20:47:55.463Z,6.50
2022-10-16T20:50:25.435Z,6.50
2022-10-16T20:52:55.152Z,4.10
2022-10-16T20:55:25.492Z,4.40
2022-10-16T20:57:57.996Z,3.80
2022-10-16T21:00:27.720Z,3.57
2022-10-16T21:02:57.515Z,3.47
2022-10-16T21:05:28.857Z,3.50
2022-10-16T21:07:58.775Z,3.70
2022-10-16T21:10:28.562Z,3.00
2022-10-16T21:13:00.943Z,2.80
2022-10-16T21:15:30.663Z,2.50
2022-10-16T21:18:00.394Z,2.20
2022-10-16T21:20:30.119Z,2.70
2022-10-16T21:22:59.868Z,2.30
2022-10-16T21:25:29.948Z,2.90
2022-10-16T21:28:02.348Z,2.70
2022-10-16T21:30:32.089Z,3.23
2022-10-16T21:33:01.798Z,3.43
2022-10-16T21:35:33.642Z,3.43
2022-10-16T21:38:04.658Z,3.50
2022-10-16T21:40:34.392Z,3.30
2022-10-16T21:43:07.100Z,4.10
2022-10-16T21:45:37.514Z,2.90
2022-10-16T21:48:07.550Z,3.30
2022-10-16T21:50:37.256Z,2.80
2022-10-16T21:53:06.990Z,2.73
2022-10-16T21:55:39.164Z,3.30
2022-10-16T21:58:11.559Z,2.50
2022-10-16T22:00:41.288Z,2.67
2022-10-16T22:03:11.068Z,2.60
2022-10-16T22:05:40.834Z,2.50
2022-10-16T22:08:10.969Z,2.63
2022-10-16T22:10:40.699Z,2.77
2022-10-16T22:13:13.110Z,2.70
2022-10-16T22:15:52.102Z,2.80
2022-10-16T22:18:21.915Z,2.70
2022-10-16T22:20:51.684Z,3.43
2022-10-16T22:23:21.466Z,3.87
2022-10-16T22:25:51.389Z,4.20
2022-10-16T22:28:23.769Z,5.07
2022-10-16T22:30:53.529Z,4.17
2022-10-16T22:33:23.458Z,3.60
2022-10-16T22:35:53.244Z,2.70
2022-10-16T22:38:23.035Z,2.70
2022-10-16T22:40:52.714Z,2.77
2022-10-16T22:43:25.060Z,2.80
2022-10-16T22:45:54.795Z,2.83
2022-10-16T22:48:24.508Z,2.50
2022-10-16T22:50:54.454Z,2.50
2022-10-16T22:53:24.147Z,3.10
2022-10-16T22:55:53.918Z,2.77
2022-10-16T22:58:26.558Z,3.17
2022-10-16T23:03:26.359Z,3.17
2022-10-16T23:05:57.218Z,2.80
2022-10-16T23:08:27.070Z,3.40
2022-10-16T23:11:00.815Z,3.70
2022-10-16T23:13:33.311Z,2.80
2022-10-16T23:16:03.043Z,3.33
2022-10-16T23:18:34.517Z,3.13
2022-10-16T23:21:07.788Z,3.37
2022-10-16T23:23:38.421Z,3.33
2022-10-16T23:26:12.084Z,3.23
2022-10-16T23:28:44.760Z,2.67
2022-10-16T23:31:15.767Z,2.93
2022-10-16T23:33:46.102Z,2.80
2022-10-16T23:36:17.848Z,3.03
2022-10-16T23:38:48.398Z,2.93
2022-10-16T23:41:18.491Z,3.00
2022-10-16T23:43:51.426Z,2.53
2022-10-16T23:46:21.298Z,3.63
2022-10-16T23:48:51.072Z,2.80
2022-10-16T23:51:20.831Z,3.30
2022-10-16T23:53:50.722Z,3.20
2022-10-16T23:56:20.496Z,3.57
2022-10-16T23:58:52.791Z,3.00
